createdAt,value
2017-11-24T00:01:10.094Z,100217.33
2017-11-24T00:03:37.614Z,100211.76
2017-11-24T00:06:05.287Z,100200.72
2017-11-24T00:08:32.819Z,100199.31
2017-11-24T00:11:00.334Z,100215.18
2017-11-24T00:13:27.919Z,100204.92
2017-11-24T00:15:55.433Z,100207.32
2017-11-24T00:18:23.112Z,100190.20
2017-11-24T00:20:50.656Z,100203.38
2017-11-24T00:23:18.195Z,100203.02
2017-11-24T00:25:45.759Z,100200.40
2017-11-24T00:28:13.340Z,100210.63
2017-11-24T00:30:40.891Z,100201.82
2017-11-24T00:33:08.433Z,100197.71
2017-11-24T00:35:35.987Z,100207.98
2017-11-24T00:38:03.511Z,100200.94
2017-11-24T00:40:31.088Z,100220.26
2017-11-24T00:42:58.615Z,100227.30
2017-11-24T00:45:26.134Z,100227.20
2017-11-24T00:47:53.714Z,100227.63
2017-11-24T00:50:21.231Z,100237.02
2017-11-24T00:52:48.779Z,100231.20
2017-11-24T00:55:16.431Z,100231.80
2017-11-24T00:57:43.962Z,100216.97
2017-11-24T01:00:11.520Z,100202.80
2017-11-24T01:02:39.096Z,100193.37
2017-11-24T01:05:06.634Z,100181.39
2017-11-24T01:07:34.157Z,100183.66
2017-11-24T01:10:01.704Z,100174.80
2017-11-24T01:12:29.235Z,100184.54
2017-11-24T01:14:56.927Z,100186.75
2017-11-24T01:17:24.477Z,100183.72
2017-11-24T01:19:51.989Z,100187.27
2017-11-24T01:22:19.540Z,100194.73
2017-11-24T01:24:47.063Z,100196.49
2017-11-24T01:27:14.638Z,100189.59
2017-11-24T01:29:42.163Z,100184.81
2017-11-24T01:32:09.678Z,100188.27
2017-11-24T01:34:37.225Z,100182.22
2017-11-24T01:37:04.812Z,100187.53
2017-11-24T01:39:32.334Z,100180.72
2017-11-24T01:42:00.005Z,100179.20
2017-11-24T01:44:27.574Z,100192.44
2017-11-24T01:46:55.090Z,100186.57
2017-11-24T01:49:22.624Z,100175.10
2017-11-24T01:51:50.166Z,100174.41
2017-11-24T01:54:17.734Z,100174.27
2017-11-24T01:56:45.264Z,100166.42
2017-11-24T01:59:12.781Z,100162.31
2017-11-24T02:01:40.342Z,100169.49
2017-11-24T02:04:08.075Z,100164.72
2017-11-24T02:06:35.589Z,100164.62
2017-11-24T02:09:03.125Z,100160.42
2017-11-24T02:11:30.796Z,100158.80
2017-11-24T02:13:58.316Z,100150.84
2017-11-24T02:16:25.833Z,100144.77
2017-11-24T02:18:53.498Z,100140.38
2017-11-24T02:21:21.042Z,100150.34
2017-11-24T02:23:48.563Z,100143.84
2017-11-24T02:26:16.125Z,100135.22
2017-11-24T02:28:43.681Z,100138.32
2017-11-24T02:31:11.259Z,100126.17
2017-11-24T02:33:38.816Z,100134.00
2017-11-24T02:36:06.391Z,100143.88
2017-11-24T02:38:33.927Z,100130.55
2017-11-24T02:41:01.516Z,100147.60
2017-11-24T02:43:29.050Z,100151.63
2017-11-24T02:45:56.591Z,100144.59
2017-11-24T02:48:24.289Z,100136.98
2017-11-24T02:50:51.830Z,100145.77
2017-11-24T02:53:20.321Z,100148.70
2017-11-24T02:55:48.029Z,100141.95
2017-11-24T02:58:15.587Z,100157.58
2017-11-24T03:00:43.097Z,100165.13
2017-11-24T03:03:10.671Z,100178.77
2017-11-24T03:05:38.181Z,100180.30
2017-11-24T03:08:05.712Z,100186.76
2017-11-24T03:10:33.271Z,100201.06
2017-11-24T03:13:00.811Z,100195.23
2017-11-24T03:15:28.373Z,100191.40
2017-11-24T03:17:55.914Z,100198.77
2017-11-24T03:20:23.661Z,100185.38
2017-11-24T03:22:51.684Z,100168.97
2017-11-24T03:25:19.198Z,100164.12
2017-11-24T03:27:46.742Z,100170.40
2017-11-24T03:30:14.271Z,100158.31
2017-11-24T03:32:41.837Z,100140.95
2017-11-24T03:35:09.357Z,100133.11
2017-11-24T03:37:36.987Z,100125.31
2017-11-24T03:40:04.571Z,100138.48
2017-11-24T03:42:32.128Z,100143.33
2017-11-24T03:44:59.796Z,100129.80
2017-11-24T03:47:27.322Z,100119.92
2017-11-24T03:49:54.839Z,100131.10
2017-11-24T03:52:22.381Z,100117.92
2017-11-24T03:54:49.924Z,100117.59
2017-11-24T03:57:17.662Z,100118.67
2017-11-24T03:59:45.202Z,100114.95
2017-11-24T04:02:12.708Z,100121.47
2017-11-24T04:04:40.260Z,100114.09
2017-11-24T04:07:07.791Z,100122.06
2017-11-24T04:09:35.365Z,100118.06
2017-11-24T04:12:02.942Z,100104.71
2017-11-24T04:14:30.463Z,100108.43
2017-11-24T04:16:58.028Z,100108.86
2017-11-24T04:19:25.612Z,100106.78
2017-11-24T04:21:53.210Z,100093.34
2017-11-24T04:24:20.801Z,100081.23
2017-11-24T04:26:48.315Z,100089.70
2017-11-24T04:29:15.821Z,100086.98
2017-11-24T04:31:43.570Z,100081.27
2017-11-24T04:34:11.086Z,100077.36
2017-11-24T04:36:38.592Z,100076.65
2017-11-24T04:39:06.142Z,100089.66
2017-11-24T04:41:33.739Z,100078.65
2017-11-24T04:44:01.285Z,100071.67
2017-11-24T04:46:28.831Z,100059.56
2017-11-24T04:48:56.392Z,100064.31
2017-11-24T04:51:23.934Z,100066.42
2017-11-24T04:53:51.447Z,100062.08
2017-11-24T04:56:19.027Z,100065.65
2017-11-24T04:58:46.546Z,100090.64
2017-11-24T05:01:14.061Z,100108.80
2017-11-24T05:03:41.626Z,100117.20
2017-11-24T05:06:09.148Z,100114.47
2017-11-24T05:08:36.657Z,100114.66
2017-11-24T05:11:04.243Z,100121.45
2017-11-24T05:13:31.753Z,100133.06
2017-11-24T05:15:59.276Z,100138.23
2017-11-24T05:18:26.822Z,100134.58
2017-11-24T05:20:54.361Z,100136.05
2017-11-24T05:23:22.023Z,100139.75
2017-11-24T05:25:49.595Z,100130.09
2017-11-24T05:28:17.114Z,100126.52
2017-11-24T05:30:44.626Z,100126.52
2017-11-24T05:33:12.163Z,100119.73
2017-11-24T05:35:39.777Z,100126.05
2017-11-24T05:38:07.300Z,100120.91
2017-11-24T05:40:34.826Z,100119.98
2017-11-24T05:43:02.387Z,100114.90
2017-11-24T05:45:30.144Z,100099.75
2017-11-24T05:47:57.665Z,100110.27
2017-11-24T05:50:25.182Z,100100.85
2017-11-24T05:52:52.743Z,100090.98
2017-11-24T05:55:20.266Z,100089.73
2017-11-24T05:57:47.795Z,100087.91
2017-11-24T06:00:15.364Z,100090.09
2017-11-24T06:02:42.905Z,100082.50
2017-11-24T06:05:10.436Z,100079.84
2017-11-24T06:07:37.998Z,100076.38
2017-11-24T06:10:05.546Z,100070.32
2017-11-24T06:12:33.246Z,100073.80
2017-11-24T06:15:00.770Z,100080.92
2017-11-24T06:17:28.306Z,100078.69
2017-11-24T06:19:56.068Z,100073.22
2017-11-24T06:22:23.618Z,100055.44
2017-11-24T06:24:51.134Z,100036.41
2017-11-24T06:27:18.986Z,100034.66
2017-11-24T06:29:46.520Z,100044.37
2017-11-24T06:32:14.126Z,100050.67
2017-11-24T06:34:41.702Z,100050.11
2017-11-24T06:37:09.231Z,100069.77
2017-11-24T06:39:36.746Z,100105.53
2017-11-24T06:42:04.327Z,100118.75
2017-11-24T06:44:31.861Z,100125.08
2017-11-24T06:46:59.382Z,100128.50
2017-11-24T06:49:26.917Z,100137.86
2017-11-24T06:51:54.438Z,100151.20
2017-11-24T06:54:22.230Z,100147.86
2017-11-24T06:56:49.728Z,100139.39
2017-11-24T06:59:17.254Z,100150.78
2017-11-24T07:01:44.803Z,100160.08
2017-11-24T07:04:12.333Z,100165.23
2017-11-24T07:06:39.913Z,100162.31
2017-11-24T07:09:07.467Z,100169.30
2017-11-24T07:11:35.040Z,100171.92
2017-11-24T07:14:02.560Z,100173.18
2017-11-24T07:16:30.082Z,100160.54
2017-11-24T07:18:57.644Z,100153.38
2017-11-24T07:21:25.182Z,100169.30
2017-11-24T07:23:52.708Z,100157.40
2017-11-24T07:26:20.436Z,100145.64
2017-11-24T07:28:47.998Z,100154.91
2017-11-24T07:31:15.519Z,100155.69
2017-11-24T07:33:43.102Z,100159.20
2017-11-24T07:36:10.697Z,100166.54
2017-11-24T07:38:38.234Z,100164.73
2017-11-24T07:41:05.777Z,100172.82
2017-11-24T07:43:33.323Z,100171.42
2017-11-24T07:46:00.844Z,100185.16
2017-11-24T07:48:28.574Z,100194.04
2017-11-24T07:50:56.093Z,100201.09
2017-11-24T07:53:23.612Z,100196.78
2017-11-24T07:55:51.192Z,100200.98
2017-11-24T07:58:18.697Z,100191.96
2017-11-24T08:00:46.221Z,100181.45
2017-11-24T08:03:13.800Z,100156.02
2017-11-24T08:05:41.322Z,100152.20
2017-11-24T08:08:08.851Z,100150.44
2017-11-24T08:10:36.399Z,100151.04
2017-11-24T08:13:03.936Z,100167.72
2017-11-24T08:15:31.477Z,100183.65
2017-11-24T08:17:58.985Z,100195.76
2017-11-24T08:20:26.561Z,100203.06
2017-11-24T08:22:54.083Z,100210.67
2017-11-24T08:25:21.604Z,100207.65
2017-11-24T08:27:49.147Z,100212.77
2017-11-24T08:30:16.679Z,100209.98
2017-11-24T08:32:44.386Z,100200.75
2017-11-24T08:35:11.902Z,100208.67
2017-11-24T08:37:39.438Z,100208.72
2017-11-24T08:40:06.972Z,100220.30
2017-11-24T08:42:34.682Z,100225.77
2017-11-24T08:45:02.215Z,100237.41
2017-11-24T08:47:35.273Z,100236.72
2017-11-24T08:50:02.823Z,100232.80
2017-11-24T08:52:30.337Z,100235.69
2017-11-24T08:54:57.873Z,100247.80
2017-11-24T08:57:25.425Z,100251.29
2017-11-24T08:59:52.942Z,100254.22
2017-11-24T09:02:20.481Z,100263.21
2017-11-24T09:04:48.033Z,100269.38
2017-11-24T09:07:15.550Z,100267.40
2017-11-24T09:09:43.101Z,100271.11
2017-11-24T09:12:10.650Z,100276.02
2017-11-24T09:14:38.192Z,100279.30
2017-11-24T09:17:05.772Z,100280.08
2017-11-24T09:19:33.341Z,100291.87
2017-11-24T09:22:00.895Z,100294.13
2017-11-24T09:24:28.437Z,100300.46
2017-11-24T09:26:56.041Z,100301.56
2017-11-24T09:29:23.602Z,100306.62
2017-11-24T09:31:51.147Z,100321.92
2017-11-24T09:34:18.817Z,100321.95
2017-11-24T09:36:46.366Z,100328.58
2017-11-24T09:39:13.885Z,100335.02
2017-11-24T09:41:41.482Z,100334.88
2017-11-24T09:44:09.013Z,100344.33
2017-11-24T09:46:36.534Z,100353.95
2017-11-24T09:49:04.117Z,100352.02
2017-11-24T09:51:31.714Z,100354.91
2017-11-24T09:53:59.372Z,100364.17
2017-11-24T09:56:26.938Z,100366.19
2017-11-24T09:58:54.494Z,100363.57
2017-11-24T10:01:22.054Z,100359.92
2017-11-24T10:03:49.623Z,100363.48
2017-11-24T10:06:17.192Z,100369.77
2017-11-24T10:08:44.757Z,100374.19
2017-11-24T10:11:12.286Z,100371.23
2017-11-24T10:13:39.859Z,100369.72
2017-11-24T10:16:07.396Z,100373.19
2017-11-24T10:18:34.930Z,100377.94
2017-11-24T10:21:08.184Z,100374.77
2017-11-24T10:23:35.701Z,100374.34
2017-11-24T10:26:03.218Z,100370.33
2017-11-24T10:28:30.877Z,100374.30
2017-11-24T10:30:58.397Z,100373.63
2017-11-24T10:33:26.911Z,100381.61
2017-11-24T10:35:54.600Z,100386.37
2017-11-24T10:38:22.139Z,100384.59
2017-11-24T10:40:49.658Z,100392.87
2017-11-24T10:43:17.245Z,100398.44
2017-11-24T10:45:44.770Z,100401.31
2017-11-24T10:48:12.283Z,100405.25
2017-11-24T10:50:39.855Z,100405.72
2017-11-24T10:53:07.404Z,100404.06
2017-11-24T10:55:34.913Z,100418.57
2017-11-24T10:58:02.499Z,100416.80
2017-11-24T11:00:30.029Z,100413.78
2017-11-24T11:02:57.549Z,100408.41
2017-11-24T11:05:25.114Z,100403.67
2017-11-24T11:07:52.631Z,100407.80
2017-11-24T11:10:20.159Z,100413.02
2017-11-24T11:12:47.723Z,100416.16
2017-11-24T11:15:15.247Z,100417.30
2017-11-24T11:17:42.757Z,100416.63
2017-11-24T11:20:10.307Z,100411.58
2017-11-24T11:22:37.978Z,100412.05
2017-11-24T11:25:05.523Z,100419.34
2017-11-24T11:27:33.058Z,100416.06
2017-11-24T11:30:00.647Z,100414.02
2017-11-24T11:32:28.164Z,100408.86
2017-11-24T11:34:55.697Z,100404.13
2017-11-24T11:37:23.289Z,100401.21
2017-11-24T11:39:50.844Z,100396.43
2017-11-24T11:42:18.361Z,100396.27
2017-11-24T11:44:46.031Z,100397.73
2017-11-24T11:47:13.546Z,100407.02
2017-11-24T11:50:54.788Z,100402.02
2017-11-24T11:53:22.498Z,100413.72
2017-11-24T11:55:50.014Z,100411.69
2017-11-24T11:58:17.535Z,100410.45
2017-11-24T12:00:45.315Z,100412.78
2017-11-24T12:03:12.834Z,100418.20
2017-11-24T12:05:40.337Z,100413.50
2017-11-24T12:08:08.025Z,100419.58
2017-11-24T12:10:35.539Z,100423.56
2017-11-24T12:13:03.054Z,100430.19
2017-11-24T12:15:30.599Z,100446.25
2017-11-24T12:17:58.318Z,100439.64
2017-11-24T12:20:25.825Z,100436.80
2017-11-24T12:22:53.344Z,100444.48
2017-11-24T12:25:20.926Z,100439.93
2017-11-24T12:27:48.446Z,100435.58
2017-11-24T12:30:15.970Z,100440.98
2017-11-24T12:32:43.534Z,100443.50
2017-11-24T12:35:11.058Z,100446.25
2017-11-24T12:37:38.577Z,100441.40
2017-11-24T12:40:06.231Z,100440.19
2017-11-24T12:42:33.741Z,100437.27
2017-11-24T12:45:01.251Z,100439.78
2017-11-24T12:47:28.822Z,100439.56
2017-11-24T12:49:56.340Z,100439.52
2017-11-24T12:52:23.857Z,100441.60
2017-11-24T12:54:51.394Z,100438.28
2017-11-24T12:57:18.907Z,100446.00
2017-11-24T12:59:46.445Z,100451.92
2017-11-24T13:02:13.985Z,100447.70
2017-11-24T13:04:41.557Z,100451.89
2017-11-24T13:07:09.102Z,100457.64
2017-11-24T13:09:36.623Z,100466.48
2017-11-24T13:12:04.192Z,100463.16
2017-11-24T13:14:31.735Z,100468.55
2017-11-24T13:16:59.281Z,100454.94
2017-11-24T13:19:26.814Z,100453.48
2017-11-24T13:21:54.394Z,100456.26
2017-11-24T13:24:21.931Z,100455.73
2017-11-24T13:26:49.457Z,100446.83
2017-11-24T13:29:17.012Z,100448.79
2017-11-24T13:31:44.535Z,100462.34
2017-11-24T13:34:12.068Z,100462.27
2017-11-24T13:36:39.662Z,100464.63
2017-11-24T13:39:07.147Z,100462.27
2017-11-24T13:41:34.724Z,100465.23
2017-11-24T13:44:02.238Z,100473.55
2017-11-24T13:46:29.766Z,100473.45
2017-11-24T13:48:57.333Z,100482.87
2017-11-24T13:51:24.856Z,100489.93
2017-11-24T13:53:52.417Z,100494.64
2017-11-24T13:56:19.989Z,100497.03
2017-11-24T13:58:47.531Z,100501.57
2017-11-24T14:01:15.045Z,100498.02
2017-11-24T14:03:42.617Z,100498.02
2017-11-24T14:06:10.134Z,100505.78
2017-11-24T14:08:37.662Z,100504.25
2017-11-24T14:11:05.231Z,100513.09
2017-11-24T14:13:32.741Z,100513.12
2017-11-24T14:16:00.254Z,100520.98
2017-11-24T14:18:27.796Z,100524.02
2017-11-24T14:20:55.334Z,100532.63
2017-11-24T14:23:22.884Z,100541.47
2017-11-24T14:25:50.389Z,100548.30
2017-11-24T14:28:17.954Z,100546.54
2017-11-24T14:30:45.467Z,100560.36
2017-11-24T14:33:12.996Z,100561.58
2017-11-24T14:35:40.706Z,100564.53
2017-11-24T14:38:08.241Z,100562.50
2017-11-24T14:40:35.757Z,100568.64
2017-11-24T14:43:03.427Z,100565.67
2017-11-24T14:45:30.956Z,100561.12
2017-11-24T14:47:58.487Z,100563.79
2017-11-24T14:50:26.030Z,100558.63
2017-11-24T14:52:53.599Z,100560.30
2017-11-24T14:55:21.127Z,100551.02
2017-11-24T14:57:48.654Z,100552.19
2017-11-24T15:00:16.396Z,100564.35
2017-11-24T15:02:43.923Z,100567.45
2017-11-24T15:05:11.456Z,100564.58
2017-11-24T15:07:39.005Z,100562.33
2017-11-24T15:10:06.620Z,100565.77
2017-11-24T15:12:34.130Z,100565.00
2017-11-24T15:15:01.841Z,100572.70
2017-11-24T15:17:29.354Z,100581.17
2017-11-24T15:19:56.876Z,100583.42
2017-11-24T15:22:24.440Z,100583.44
2017-11-24T15:24:51.954Z,100580.15
2017-11-24T15:27:19.494Z,100579.99
2017-11-24T15:29:47.170Z,100576.16
2017-11-24T15:32:14.870Z,100580.22
2017-11-24T15:34:42.410Z,100583.23
2017-11-24T15:37:09.985Z,100582.19
2017-11-24T15:39:37.519Z,100579.44
2017-11-24T15:42:05.053Z,100587.17
2017-11-24T15:44:32.649Z,100587.83
2017-11-24T15:47:00.183Z,100593.36
2017-11-24T15:49:27.709Z,100584.22
2017-11-24T15:51:55.275Z,100580.48
2017-11-24T15:54:22.798Z,100592.72
2017-11-24T15:56:50.477Z,100596.92
2017-11-24T15:59:18.004Z,100600.02
2017-11-24T16:01:45.550Z,100592.83
2017-11-24T16:04:13.139Z,100597.47
2017-11-24T16:06:40.673Z,100607.02
2017-11-24T16:09:08.193Z,100603.39
2017-11-24T16:11:35.729Z,100607.80
2017-11-24T16:14:03.258Z,100613.26
2017-11-24T16:16:30.831Z,100620.69
2017-11-24T16:18:58.354Z,100616.94
2017-11-24T16:21:25.878Z,100623.28
2017-11-24T16:23:53.576Z,100616.22
2017-11-24T16:26:21.133Z,100620.48
2017-11-24T16:28:48.818Z,100610.63
2017-11-24T16:31:16.333Z,100612.27
2017-11-24T16:33:43.850Z,100604.13
2017-11-24T16:36:11.541Z,100602.12
2017-11-24T16:38:39.073Z,100605.14
2017-11-24T16:41:06.590Z,100609.08
2017-11-24T16:43:34.348Z,100605.80
2017-11-24T16:46:01.874Z,100596.86
2017-11-24T16:48:29.392Z,100599.36
2017-11-24T16:50:56.956Z,100597.52
2017-11-24T16:53:24.493Z,100596.56
2017-11-24T16:55:52.156Z,100597.58
2017-11-24T16:58:19.673Z,100590.75
2017-11-24T17:00:47.212Z,100594.16
2017-11-24T17:03:14.802Z,100597.41
2017-11-24T17:05:42.336Z,100608.77
2017-11-24T17:08:09.858Z,100601.50
2017-11-24T17:10:37.444Z,100606.50
2017-11-24T17:13:04.999Z,100612.74
2017-11-24T17:15:32.531Z,100608.67
2017-11-24T17:18:00.097Z,100610.34
2017-11-24T17:20:27.645Z,100615.06
2017-11-24T17:22:55.166Z,100613.70
2017-11-24T17:25:22.719Z,100612.27
2017-11-24T17:27:50.491Z,100610.67
2017-11-24T17:30:18.021Z,100612.02
2017-11-24T17:32:45.567Z,100611.58
2017-11-24T17:35:13.125Z,100621.31
2017-11-24T17:37:40.651Z,100623.57
2017-11-24T17:40:08.263Z,100629.20
2017-11-24T17:42:35.820Z,100635.96
2017-11-24T17:45:03.367Z,100637.73
2017-11-24T17:47:31.054Z,100637.09
2017-11-24T17:49:58.573Z,100636.90
2017-11-24T17:52:26.103Z,100637.42
2017-11-24T17:54:53.777Z,100635.66
2017-11-24T17:57:21.333Z,100638.81
2017-11-24T17:59:48.970Z,100637.10
2017-11-24T18:02:16.677Z,100629.17
2017-11-24T18:04:44.209Z,100634.44
2017-11-24T18:07:11.751Z,100632.20
2017-11-24T18:09:39.312Z,100638.09
2017-11-24T18:12:06.863Z,100645.11
2017-11-24T18:14:34.391Z,100651.13
2017-11-24T18:17:01.968Z,100652.26
2017-11-24T18:19:29.490Z,100658.00
2017-11-24T18:21:57.033Z,100659.41
2017-11-24T18:24:24.579Z,100651.84
2017-11-24T18:26:52.135Z,100658.34
2017-11-24T18:29:19.654Z,100659.06
2017-11-24T18:31:47.257Z,100654.02
2017-11-24T18:34:14.826Z,100658.42
2017-11-24T18:36:42.353Z,100656.05
2017-11-24T18:39:09.949Z,100662.67
2017-11-24T18:41:37.505Z,100663.25
2017-11-24T18:44:05.018Z,100661.41
2017-11-24T18:46:32.611Z,100659.95
2017-11-24T18:49:00.142Z,100649.55
2017-11-24T18:51:27.670Z,100658.27
2017-11-24T18:53:55.409Z,100644.45
2017-11-24T18:56:22.934Z,100652.05
2017-11-24T18:58:50.463Z,100651.10
2017-11-24T19:01:18.146Z,100650.81
2017-11-24T19:03:45.682Z,100653.89
2017-11-24T19:06:13.217Z,100661.04
2017-11-24T19:08:40.808Z,100669.59
2017-11-24T19:11:08.333Z,100670.64
2017-11-24T19:13:35.906Z,100668.12
2017-11-24T19:16:03.459Z,100667.79
2017-11-24T19:18:31.151Z,100661.83
2017-11-24T19:20:58.675Z,100661.83
2017-11-24T19:23:26.204Z,100660.52
2017-11-24T19:25:53.805Z,100664.11
2017-11-24T19:28:21.331Z,100662.55
2017-11-24T19:30:48.880Z,100666.48
2017-11-24T19:33:16.491Z,100677.03
2017-11-24T19:35:44.041Z,100667.86
2017-11-24T19:38:11.582Z,100668.04
2017-11-24T19:40:39.145Z,100673.42
2017-11-24T19:43:06.687Z,100673.69
2017-11-24T19:45:34.339Z,100672.23
2017-11-24T19:48:01.877Z,100671.34
2017-11-24T19:50:29.477Z,100678.94
2017-11-24T19:52:57.010Z,100679.00
2017-11-24T19:55:24.538Z,100676.69
2017-11-24T19:57:52.087Z,100682.91
2017-11-24T20:00:19.673Z,100691.24
2017-11-24T20:02:47.231Z,100685.33
2017-11-24T20:05:14.781Z,100685.13
2017-11-24T20:07:42.303Z,100683.30
2017-11-24T20:10:09.904Z,100676.98
2017-11-24T20:12:37.451Z,100670.96
2017-11-24T20:15:05.009Z,100671.27
2017-11-24T20:17:32.563Z,100677.44
2017-11-24T20:20:00.175Z,100665.88
2017-11-24T20:22:27.697Z,100654.69
2017-11-24T20:24:55.217Z,100651.50
2017-11-24T20:27:22.792Z,100654.92
2017-11-24T20:29:50.323Z,100650.16
2017-11-24T20:32:17.861Z,100651.30
2017-11-24T20:34:45.407Z,100662.17
2017-11-24T20:37:13.182Z,100660.66
2017-11-24T20:39:40.710Z,100658.64
2017-11-24T20:42:08.234Z,100653.66
2017-11-24T20:44:35.778Z,100652.34
2017-11-24T20:47:03.313Z,100663.76
2017-11-24T20:49:30.880Z,100660.41
2017-11-24T20:51:58.429Z,100660.87
2017-11-24T20:54:26.185Z,100665.53
2017-11-24T20:56:53.698Z,100663.05
2017-11-24T20:59:21.222Z,100665.17
2017-11-24T21:01:48.782Z,100658.66
2017-11-24T21:04:16.330Z,100662.97
2017-11-24T21:06:43.863Z,100661.76
2017-11-24T21:09:11.443Z,100663.39
2017-11-24T21:11:38.975Z,100659.09
2017-11-24T21:14:06.498Z,100660.06
2017-11-24T21:16:34.061Z,100655.20
2017-11-24T21:19:01.601Z,100653.31
2017-11-24T21:21:29.136Z,100654.48
2017-11-24T21:23:56.653Z,100651.91
2017-11-24T21:26:24.199Z,100654.14
2017-11-24T21:28:51.755Z,100655.84
2017-11-24T21:31:19.318Z,100651.44
2017-11-24T21:33:46.847Z,100653.77
2017-11-24T21:36:14.394Z,100658.50
2017-11-24T21:38:42.058Z,100657.31
2017-11-24T21:41:09.573Z,100652.42
2017-11-24T21:43:37.098Z,100658.20
2017-11-24T21:46:04.831Z,100658.11
2017-11-24T21:48:32.354Z,100654.34
2017-11-24T21:50:59.885Z,100657.45
2017-11-24T21:53:27.453Z,100664.72
2017-11-24T21:55:54.973Z,100668.61
2017-11-24T21:58:22.503Z,100661.73
2017-11-24T22:00:50.049Z,100668.04
2017-11-24T22:03:17.570Z,100671.90
2017-11-24T22:05:45.231Z,100676.19
2017-11-24T22:08:12.746Z,100676.58
2017-11-24T22:10:40.278Z,100673.52
2017-11-24T22:13:07.821Z,100673.64
2017-11-24T22:15:35.348Z,100673.06
2017-11-24T22:18:02.921Z,100676.09
2017-11-24T22:20:30.450Z,100671.93
2017-11-24T22:22:58.015Z,100667.33
2017-11-24T22:25:25.554Z,100673.16
2017-11-24T22:27:53.115Z,100663.97
2017-11-24T22:30:20.728Z,100660.20
2017-11-24T22:32:48.266Z,100661.30
2017-11-24T22:35:15.811Z,100662.09
2017-11-24T22:37:43.350Z,100661.25
2017-11-24T22:40:10.999Z,100662.98
2017-11-24T22:42:38.547Z,100658.15
2017-11-24T22:45:06.076Z,100660.78
2017-11-24T22:47:33.643Z,100647.94
2017-11-24T22:50:01.189Z,100657.63
2017-11-24T22:52:28.788Z,100653.86
2017-11-24T22:54:56.331Z,100650.70
2017-11-24T22:57:23.878Z,100647.03
2017-11-24T22:59:51.475Z,100643.56
2017-11-24T23:02:18.985Z,100636.39
2017-11-24T23:04:46.543Z,100627.81
2017-11-24T23:07:14.091Z,100625.19
2017-11-24T23:09:41.647Z,100623.22
2017-11-24T23:12:09.305Z,100617.92
2017-11-24T23:14:36.830Z,100612.48
2017-11-24T23:17:04.376Z,100611.00
2017-11-24T23:19:32.035Z,100619.27
2017-11-24T23:21:59.562Z,100613.63
2017-11-24T23:24:27.073Z,100611.52
2017-11-24T23:26:54.634Z,100610.25
2017-11-24T23:29:22.199Z,100607.22
2017-11-24T23:31:49.719Z,100602.23
2017-11-24T23:34:17.526Z,100599.27
2017-11-24T23:36:45.041Z,100589.86
2017-11-24T23:39:12.568Z,100596.34
2017-11-24T23:41:40.157Z,100592.88
2017-11-24T23:44:07.673Z,100599.09
2017-11-24T23:46:35.188Z,100605.25
2017-11-24T23:49:02.758Z,100604.14
2017-11-24T23:51:30.269Z,100605.93
2017-11-24T23:53:57.802Z,100608.25
2017-11-24T23:56:25.351Z,100593.94
2017-11-24T23:58:52.878Z,100604.88
